Time;durP1;ratioP1;P1;durP2;ratioP2;P2;SDS_P1;SDS_P2;PMS_P1;PMS_P2;Temp;Humidity;BMP_temperature;BMP_pressure;BME280_temperature;BME280_humidity;BME280_pressure;Samples;Min_cycle;Max_cycle;Signal;HPM_P1;HPM_P2
2023/12/15 00:02:14;;;;;;;21.35;11.38;;;6.50;99.90;;;;;;5003944;28;20415;-72
2023/12/15 00:04:39;;;;;;;20.15;11.35;;;6.50;99.90;;;;;;5011299;28;20026;-72
2023/12/15 00:07:05;;;;;;;21.60;12.07;;;6.50;99.90;;;;;;4997449;28;20029;-73
2023/12/15 00:09:30;;;;;;;25.60;11.98;;;6.50;99.90;;;;;;5009768;28;20026;-72
2023/12/15 00:11:56;;;;;;;22.52;11.88;;;6.50;99.90;;;;;;5009094;28;20049;-72
2023/12/15 00:14:21;;;;;;;23.35;13.27;;;6.50;99.90;;;;;;5005027;28;20087;-72
2023/12/15 00:16:47;;;;;;;25.52;13.65;;;6.50;99.90;;;;;;5011260;28;20025;-72
2023/12/15 00:19:13;;;;;;;24.63;13.57;;;6.60;99.90;;;;;;5010821;28;20053;-72
2023/12/15 00:21:38;;;;;;;21.67;13.68;;;6.60;99.90;;;;;;5002559;28;20434;-74
2023/12/15 00:24:08;;;;;;;29.35;15.65;;;6.50;99.90;;;;;;5011133;28;20029;-72
2023/12/15 00:26:34;;;;;;;29.17;16.52;;;6.50;99.90;;;;;;5011416;28;20033;-72
2023/12/15 00:29:00;;;;;;;29.08;17.00;;;6.50;99.90;;;;;;5011127;28;20026;-72
2023/12/15 00:31:25;;;;;;;33.40;17.95;;;6.50;99.90;;;;;;5004665;28;20033;-72
2023/12/15 00:33:51;;;;;;;33.55;19.00;;;6.60;99.90;;;;;;5010180;28;20041;-72
2023/12/15 00:36:17;;;;;;;33.40;18.63;;;6.50;99.90;;;;;;5010870;28;20100;-72
2023/12/15 00:38:42;;;;;;;32.85;18.38;;;6.50;99.90;;;;;;5011397;28;20046;-72
2023/12/15 00:41:08;;;;;;;36.15;20.67;;;6.50;99.90;;;;;;5010038;28;20502;-72
2023/12/15 00:43:33;;;;;;;36.83;21.35;;;6.50;99.90;;;;;;5003961;28;20092;-72
2023/12/15 00:45:59;;;;;;;41.45;22.80;;;6.50;99.90;;;;;;5010712;28;20050;-72
2023/12/15 00:48:24;;;;;;;39.70;21.98;;;6.50;99.90;;;;;;5011649;28;20022;-72
2023/12/15 00:50:50;;;;;;;42.83;23.75;;;6.50;99.90;;;;;;5011261;28;20038;-72
2023/12/15 00:53:15;;;;;;;44.17;23.50;;;6.60;99.90;;;;;;5007525;28;20033;-72
2023/12/15 00:55:41;;;;;;;37.72;20.33;;;6.60;99.90;;;;;;5011021;28;20513;-72
2023/12/15 00:58:07;;;;;;;42.50;23.65;;;6.50;99.90;;;;;;4981815;28;20038;-72
2023/12/15 01:00:32;;;;;;;45.70;24.85;;;6.60;99.90;;;;;;5004439;28;20081;-72
2023/12/15 01:02:58;;;;;;;45.42;25.67;;;6.60;99.90;;;;;;5011060;28;20034;-72
2023/12/15 01:05:23;;;;;;;43.97;25.02;;;6.60;99.90;;;;;;5011050;28;20026;-72
2023/12/15 01:07:49;;;;;;;46.67;26.75;;;6.60;99.90;;;;;;5011189;28;20030;-72
2023/12/15 01:10:14;;;;;;;50.80;26.10;;;6.60;99.90;;;;;;5011637;28;20026;-72
2023/12/15 01:12:40;;;;;;;49.95;26.27;;;6.60;99.90;;;;;;5014544;28;20386;-72
2023/12/15 01:15:06;;;;;;;53.85;27.48;;;6.60;99.90;;;;;;5014625;28;20033;-72
2023/12/15 01:17:32;;;;;;;52.05;27.98;;;6.60;99.90;;;;;;5014199;28;20022;-73
2023/12/15 01:19:57;;;;;;;52.08;26.83;;;6.60;99.90;;;;;;5014340;28;20033;-72
2023/12/15 01:22:23;;;;;;;55.00;28.25;;;6.60;99.90;;;;;;5009809;28;20034;-72
2023/12/15 01:24:49;;;;;;;51.13;28.38;;;6.60;99.90;;;;;;5014571;28;20056;-72
2023/12/15 01:27:14;;;;;;;56.20;29.38;;;6.60;99.90;;;;;;5014265;28;20038;-72
2023/12/15 01:29:40;;;;;;;54.75;29.58;;;6.60;99.90;;;;;;5014151;28;20114;-72
2023/12/15 01:32:06;;;;;;;50.80;28.52;;;6.60;99.90;;;;;;5005617;28;20456;-72
2023/12/15 01:34:31;;;;;;;56.25;30.23;;;6.60;99.90;;;;;;5014647;28;20058;-72
2023/12/15 01:36:57;;;;;;;59.75;30.75;;;6.60;99.90;;;;;;5013549;28;20033;-72
2023/12/15 01:39:22;;;;;;;59.17;31.13;;;6.60;99.90;;;;;;5014464;28;20048;-72
2023/12/15 01:41:48;;;;;;;57.03;31.52;;;6.70;99.90;;;;;;5006202;28;20050;-72
2023/12/15 01:44:14;;;;;;;58.30;30.73;;;6.60;99.90;;;;;;5014481;28;20153;-72
2023/12/15 01:46:40;;;;;;;58.47;32.53;;;6.70;99.90;;;;;;5014192;28;20077;-72
2023/12/15 01:49:05;;;;;;;61.28;33.85;;;6.70;99.90;;;;;;5013894;28;20037;-72
2023/12/15 01:51:31;;;;;;;60.95;32.03;;;6.60;99.90;;;;;;5011053;28;20095;-72
2023/12/15 01:53:56;;;;;;;58.15;30.83;;;6.60;99.90;;;;;;5013866;28;20049;-73
2023/12/15 01:56:22;;;;;;;61.05;30.33;;;6.70;99.90;;;;;;5013692;28;20394;-72
2023/12/15 01:58:48;;;;;;;63.45;33.05;;;6.70;99.90;;;;;;5013955;28;20045;-72
2023/12/15 02:01:13;;;;;;;68.53;32.60;;;6.70;99.90;;;;;;5005764;28;20034;-73
2023/12/15 02:03:39;;;;;;;63.15;31.17;;;6.70;99.90;;;;;;5012910;28;20026;-72
2023/12/15 02:06:05;;;;;;;66.57;33.38;;;6.70;99.90;;;;;;5013772;28;20021;-72
2023/12/15 02:08:31;;;;;;;70.50;34.42;;;6.70;99.90;;;;;;5013611;28;20390;-72
2023/12/15 02:10:56;;;;;;;68.78;32.50;;;6.70;99.90;;;;;;5011072;28;20030;-72
2023/12/15 02:13:22;;;;;;;64.22;32.85;;;6.70;99.90;;;;;;5006095;28;20049;-72
2023/12/15 02:15:47;;;;;;;67.57;34.42;;;6.70;99.90;;;;;;5013656;28;20037;-72
2023/12/15 02:18:13;;;;;;;70.43;33.30;;;6.70;99.90;;;;;;5013088;28;20104;-72
2023/12/15 02:20:38;;;;;;;69.93;32.55;;;6.70;99.90;;;;;;5013436;28;20113;-72
2023/12/15 02:23:04;;;;;;;72.05;34.05;;;6.80;99.90;;;;;;5010588;28;20030;-73
2023/12/15 02:25:30;;;;;;;66.72;34.05;;;6.80;99.90;;;;;;5013487;28;20494;-72
2023/12/15 02:27:56;;;;;;;73.60;32.38;;;6.80;99.90;;;;;;5008466;28;20129;-72
2023/12/15 02:30:22;;;;;;;69.03;33.25;;;6.80;99.90;;;;;;5009680;28;20038;-72
2023/12/15 02:32:47;;;;;;;74.55;34.05;;;6.80;99.90;;;;;;5009815;28;20064;-72
2023/12/15 02:35:14;;;;;;;73.10;34.22;;;6.80;99.90;;;;;;5011529;28;20026;-72
2023/12/15 02:37:39;;;;;;;70.10;33.38;;;6.90;99.90;;;;;;5013064;28;20533;-72
2023/12/15 02:40:06;;;;;;;74.38;35.28;;;6.90;99.90;;;;;;5012198;28;20053;-72
2023/12/15 02:42:32;;;;;;;67.55;33.20;;;6.90;99.90;;;;;;4990555;28;20121;-72
2023/12/15 02:45:00;;;;;;;82.35;34.97;;;6.90;99.90;;;;;;5008542;28;20448;-73
2023/12/15 02:47:26;;;;;;;74.97;34.83;;;6.90;99.90;;;;;;5012586;28;20502;-72
2023/12/15 02:49:54;;;;;;;75.95;34.92;;;6.90;99.90;;;;;;5012865;28;20037;-72
2023/12/15 02:52:20;;;;;;;71.93;34.08;;;6.90;99.90;;;;;;5009950;28;20075;-72
2023/12/15 02:54:46;;;;;;;82.07;35.92;;;6.90;99.90;;;;;;5011957;28;20092;-72
2023/12/15 02:57:11;;;;;;;80.38;34.45;;;6.90;99.90;;;;;;5011506;28;20026;-73
2023/12/15 02:59:37;;;;;;;79.82;34.42;;;7.00;99.90;;;;;;5012351;28;20034;-72
2023/12/15 03:02:03;;;;;;;78.47;34.75;;;6.90;99.90;;;;;;5011959;28;20038;-72
2023/12/15 03:04:29;;;;;;;70.35;32.72;;;7.00;99.90;;;;;;5010635;28;20033;-72
2023/12/15 03:06:55;;;;;;;75.72;31.92;;;7.00;99.90;;;;;;5012083;28;20069;-72
2023/12/15 03:09:21;;;;;;;80.65;34.97;;;7.00;99.90;;;;;;5009584;28;20518;-72
2023/12/15 03:11:47;;;;;;;70.57;33.25;;;7.00;99.90;;;;;;5004437;28;20022;-72
2023/12/15 03:14:12;;;;;;;77.85;35.33;;;7.00;99.90;;;;;;5011799;28;20050;-72
2023/12/15 03:16:38;;;;;;;73.68;33.13;;;7.00;99.90;;;;;;4994882;28;20113;-72
2023/12/15 03:19:03;;;;;;;84.43;37.15;;;7.00;99.90;;;;;;5009800;28;20187;-72
2023/12/15 03:21:29;;;;;;;81.60;36.50;;;7.00;99.90;;;;;;5010209;28;20386;-72
2023/12/15 03:23:55;;;;;;;82.18;33.95;;;7.10;99.90;;;;;;5012100;28;20037;-72
2023/12/15 03:26:21;;;;;;;71.43;32.03;;;7.00;99.90;;;;;;5012372;28;20089;-72
2023/12/15 03:28:46;;;;;;;82.78;34.08;;;7.10;99.90;;;;;;5012087;28;20394;-72
2023/12/15 03:31:12;;;;;;;78.60;35.72;;;7.10;99.90;;;;;;5002480;28;20113;-73
2023/12/15 03:33:37;;;;;;;75.90;34.40;;;7.10;99.90;;;;;;5011893;28;20029;-72
2023/12/15 03:36:04;;;;;;;76.88;33.22;;;7.10;99.90;;;;;;5011448;28;20068;-72
2023/12/15 03:38:30;;;;;;;79.38;33.58;;;7.10;99.90;;;;;;5011654;28;20045;-72
2023/12/15 03:40:56;;;;;;;76.50;33.33;;;7.10;99.90;;;;;;4991172;28;20038;-72
2023/12/15 03:43:22;;;;;;;81.35;33.17;;;7.10;99.90;;;;;;5011739;28;20413;-73
2023/12/15 03:45:47;;;;;;;83.95;35.00;;;7.10;99.90;;;;;;5006095;28;20057;-72
2023/12/15 03:48:13;;;;;;;76.43;31.55;;;7.10;99.90;;;;;;5011398;28;20041;-72
2023/12/15 03:50:39;;;;;;;87.03;34.85;;;7.20;99.90;;;;;;5011791;28;20578;-72
2023/12/15 03:53:04;;;;;;;81.20;32.58;;;7.10;99.90;;;;;;5002991;28;20030;-72
2023/12/15 03:55:30;;;;;;;89.75;35.00;;;7.20;99.90;;;;;;5011654;28;20033;-72
2023/12/15 03:57:55;;;;;;;87.05;34.65;;;7.20;99.90;;;;;;5011306;28;20037;-73
2023/12/15 04:00:21;;;;;;;92.32;36.80;;;7.20;99.90;;;;;;5005740;28;20062;-72
2023/12/15 04:02:47;;;;;;;95.30;36.83;;;7.20;99.90;;;;;;4995057;28;20030;-72
2023/12/15 04:05:13;;;;;;;83.97;34.42;;;7.20;99.90;;;;;;5010954;28;20429;-72
2023/12/15 04:07:38;;;;;;;82.38;33.65;;;7.20;99.90;;;;;;5011530;28;20022;-72
2023/12/15 04:10:05;;;;;;;86.03;36.00;;;7.20;99.90;;;;;;5004347;28;20026;-72
2023/12/15 04:12:31;;;;;;;85.60;33.78;;;7.20;99.90;;;;;;5010324;28;20556;-72
2023/12/15 04:14:56;;;;;;;82.28;31.65;;;7.20;99.90;;;;;;5011136;28;20030;-72
2023/12/15 04:17:22;;;;;;;83.38;33.88;;;7.20;99.90;;;;;;5010055;28;20029;-72
2023/12/15 04:19:47;;;;;;;83.65;34.95;;;7.20;99.90;;;;;;5010253;28;20091;-72
2023/12/15 04:22:13;;;;;;;92.18;35.60;;;7.20;99.90;;;;;;5003430;28;20037;-73
2023/12/15 04:24:40;;;;;;;92.18;34.50;;;7.20;99.90;;;;;;4993409;28;20064;-72
2023/12/15 04:27:05;;;;;;;84.82;33.33;;;7.20;99.90;;;;;;5010869;28;20022;-72
2023/12/15 04:29:31;;;;;;;84.97;33.30;;;7.20;99.90;;;;;;5011348;28;20394;-72
2023/12/15 04:31:56;;;;;;;93.38;37.25;;;7.30;99.90;;;;;;4999223;28;20038;-72
2023/12/15 04:34:22;;;;;;;94.10;35.47;;;7.30;99.90;;;;;;5003516;28;20026;-72
2023/12/15 04:36:48;;;;;;;83.22;33.70;;;7.20;99.90;;;;;;5010857;28;20093;-72
2023/12/15 04:39:13;;;;;;;94.55;36.45;;;7.20;99.90;;;;;;5010051;28;20502;-72
2023/12/15 04:41:39;;;;;;;87.70;35.58;;;7.30;99.90;;;;;;5008792;28;20778;-72
2023/12/15 04:44:04;;;;;;;90.53;35.10;;;7.30;99.90;;;;;;4994132;28;20029;-72
2023/12/15 04:46:31;;;;;;;92.47;36.60;;;7.30;99.90;;;;;;5015210;28;20088;-72
2023/12/15 04:48:59;;;;;;;91.95;35.20;;;7.30;99.90;;;;;;5012667;28;20030;-72
2023/12/15 04:51:25;;;;;;;95.95;34.97;;;7.30;99.90;;;;;;5013177;28;20084;-72
2023/12/15 04:53:51;;;;;;;92.32;34.88;;;7.30;99.90;;;;;;5015164;28;20034;-72
2023/12/15 04:56:16;;;;;;;92.38;35.33;;;7.30;99.90;;;;;;5014627;28;20026;-72
2023/12/15 04:58:43;;;;;;;82.15;32.75;;;7.40;99.90;;;;;;5014595;28;20348;-72
2023/12/15 05:01:10;;;;;;;90.88;33.55;;;7.40;99.90;;;;;;5006129;28;20060;-72
2023/12/15 05:03:37;;;;;;;93.85;35.63;;;7.40;99.90;;;;;;5011487;28;20440;-72
2023/12/15 05:06:02;;;;;;;87.63;32.38;;;7.30;99.90;;;;;;5014605;28;20026;-72
2023/12/15 05:08:28;;;;;;;101.53;36.88;;;7.40;99.90;;;;;;5014520;28;20077;-72
2023/12/15 05:10:53;;;;;;;92.75;34.33;;;7.40;99.90;;;;;;5014450;28;20038;-72
2023/12/15 05:13:19;;;;;;;101.25;36.35;;;7.40;99.90;;;;;;5012053;28;20057;-72
2023/12/15 05:15:45;;;;;;;84.32;33.67;;;7.40;99.90;;;;;;5014539;28;20505;-72
2023/12/15 05:18:10;;;;;;;89.25;33.28;;;7.40;99.90;;;;;;5014289;28;20042;-72
2023/12/15 05:20:37;;;;;;;96.05;34.72;;;7.40;99.90;;;;;;5014590;28;20037;-73
2023/12/15 05:23:03;;;;;;;106.22;38.20;;;7.40;99.90;;;;;;5013146;28;20478;-73
2023/12/15 05:25:29;;;;;;;84.05;33.33;;;7.40;99.90;;;;;;5007504;28;20033;-73
2023/12/15 05:27:55;;;;;;;94.75;35.35;;;7.40;99.90;;;;;;5014067;28;20025;-73
2023/12/15 05:30:20;;;;;;;97.00;38.70;;;7.40;99.90;;;;;;5012031;28;20152;-72
2023/12/15 05:32:46;;;;;;;88.10;35.03;;;7.40;99.90;;;;;;5014136;28;20379;-72
2023/12/15 05:35:12;;;;;;;91.10;35.28;;;7.40;99.90;;;;;;5013777;28;20030;-72
2023/12/15 05:37:37;;;;;;;104.95;37.72;;;7.40;99.90;;;;;;5014610;28;20033;-72
2023/12/15 05:40:03;;;;;;;97.30;35.03;;;7.50;99.90;;;;;;5010846;28;20069;-72
2023/12/15 05:42:29;;;;;;;100.50;36.30;;;7.50;99.90;;;;;;5013586;28;20478;-72
2023/12/15 05:44:54;;;;;;;91.47;34.83;;;7.50;99.90;;;;;;5014341;28;20057;-72
2023/12/15 05:47:20;;;;;;;94.35;35.08;;;7.50;99.90;;;;;;5012837;28;20060;-72
2023/12/15 05:49:45;;;;;;;113.18;39.45;;;7.50;99.90;;;;;;5007677;28;20026;-72
2023/12/15 05:52:11;;;;;;;101.30;36.25;;;7.50;99.90;;;;;;5003122;28;20029;-72
2023/12/15 05:54:40;;;;;;;92.68;35.33;;;7.50;99.90;;;;;;5013628;28;20117;-72
2023/12/15 05:57:06;;;;;;;104.13;37.63;;;7.50;99.90;;;;;;5013535;28;20096;-72
2023/12/15 05:59:32;;;;;;;98.75;34.72;;;7.50;99.90;;;;;;5004034;28;20134;-72
2023/12/15 06:01:57;;;;;;;101.45;37.65;;;7.50;99.90;;;;;;5009714;28;20027;-73
2023/12/15 06:04:23;;;;;;;96.57;35.70;;;7.50;99.90;;;;;;5013614;28;20457;-73
2023/12/15 06:06:50;;;;;;;101.05;36.05;;;7.50;99.90;;;;;;5013191;28;20033;-72
2023/12/15 06:09:16;;;;;;;94.05;35.60;;;7.60;99.90;;;;;;5012715;28;20548;-72
2023/12/15 06:11:42;;;;;;;95.72;35.63;;;7.60;99.90;;;;;;5013544;28;20030;-72
2023/12/15 06:14:08;;;;;;;86.50;34.17;;;7.60;99.90;;;;;;5012940;28;20041;-72
2023/12/15 06:16:35;;;;;;;99.88;36.30;;;7.60;99.90;;;;;;5013333;28;20568;-72
2023/12/15 06:19:01;;;;;;;94.78;35.90;;;7.60;99.90;;;;;;5012569;28;20398;-73
2023/12/15 06:21:27;;;;;;;76.22;31.50;;;7.60;99.90;;;;;;4995426;28;20030;-73
2023/12/15 06:23:53;;;;;;;97.65;34.95;;;7.60;99.90;;;;;;5011957;28;20038;-72
2023/12/15 06:26:23;;;;;;;92.85;35.78;;;7.60;99.90;;;;;;4994888;28;20022;-72
2023/12/15 06:28:49;;;;;;;83.03;32.10;;;7.60;99.90;;;;;;5012362;28;20530;-72
2023/12/15 06:31:15;;;;;;;89.07;35.00;;;7.60;99.90;;;;;;5012553;28;20149;-72
2023/12/15 06:33:41;;;;;;;94.00;36.30;;;7.60;99.90;;;;;;5012204;28;20026;-72
2023/12/15 06:36:08;;;;;;;89.22;35.90;;;7.60;99.90;;;;;;4994159;28;20030;-72
2023/12/15 06:38:37;;;;;;;86.15;34.08;;;7.70;99.90;;;;;;5012600;28;20156;-72
2023/12/15 06:41:06;;;;;;;96.65;36.22;;;7.70;99.90;;;;;;5011817;28;20518;-73
2023/12/15 06:43:32;;;;;;;82.70;33.47;;;7.70;99.90;;;;;;5012389;28;20142;-72
2023/12/15 06:45:58;;;;;;;85.38;34.92;;;7.70;99.90;;;;;;5011258;28;20045;-72
2023/12/15 06:48:24;;;;;;;85.95;33.58;;;7.70;99.90;;;;;;5012397;28;20037;-72
2023/12/15 06:50:49;;;;;;;80.63;33.05;;;7.70;99.90;;;;;;5012990;28;20034;-72
2023/12/15 06:53:17;;;;;;;90.47;35.92;;;7.70;99.90;;;;;;5011541;28;20029;-73
2023/12/15 06:55:42;;;;;;;73.28;31.58;;;7.70;99.90;;;;;;5011280;28;20497;-72
2023/12/15 06:58:08;;;;;;;91.53;36.10;;;7.70;99.90;;;;;;5011459;28;20092;-73
2023/12/15 07:00:34;;;;;;;90.40;34.58;;;7.80;99.90;;;;;;5013017;28;20132;-72
2023/12/15 07:02:59;;;;;;;88.30;34.28;;;7.80;99.90;;;;;;5012392;28;20417;-72
2023/12/15 07:05:25;;;;;;;88.20;35.42;;;7.70;99.90;;;;;;5012776;28;20029;-73
2023/12/15 07:07:50;;;;;;;88.47;33.28;;;7.70;99.90;;;;;;5009993;28;20056;-72
2023/12/15 07:10:16;;;;;;;91.97;33.65;;;7.80;99.90;;;;;;5012600;28;20033;-72
2023/12/15 07:12:42;;;;;;;99.60;36.30;;;7.80;99.90;;;;;;5013118;28;20466;-72
2023/12/15 07:15:08;;;;;;;92.60;35.40;;;7.80;99.90;;;;;;5012225;28;20120;-72
2023/12/15 07:17:33;;;;;;;82.03;32.90;;;7.80;99.90;;;;;;4993360;28;20046;-73
2023/12/15 07:19:59;;;;;;;93.45;36.83;;;7.80;99.90;;;;;;5002712;28;20410;-72
2023/12/15 07:22:25;;;;;;;80.82;32.08;;;7.80;99.90;;;;;;5008254;28;20452;-73
2023/12/15 07:24:50;;;;;;;90.80;34.55;;;7.80;99.90;;;;;;5012750;28;20026;-72
2023/12/15 07:27:16;;;;;;;87.28;34.85;;;7.80;99.90;;;;;;5010197;28;20075;-72
2023/12/15 07:29:42;;;;;;;83.93;34.35;;;7.80;99.90;;;;;;5011914;28;20054;-72
2023/12/15 07:32:07;;;;;;;81.30;32.70;;;7.80;99.90;;;;;;5011981;28;20065;-72
2023/12/15 07:34:33;;;;;;;86.97;33.85;;;7.80;99.90;;;;;;5004066;28;20035;-72
2023/12/15 07:36:58;;;;;;;76.65;31.70;;;7.80;99.90;;;;;;4998442;28;20037;-73
2023/12/15 07:39:24;;;;;;;77.00;32.30;;;7.80;99.90;;;;;;5009935;28;20044;-72
2023/12/15 07:41:50;;;;;;;87.30;34.13;;;7.80;99.90;;;;;;5009584;28;20106;-72
2023/12/15 07:44:16;;;;;;;75.32;32.95;;;7.80;99.90;;;;;;5011259;28;20033;-72
2023/12/15 07:46:42;;;;;;;87.88;35.25;;;7.80;99.90;;;;;;5004151;28;20038;-72
2023/12/15 07:49:11;;;;;;;85.65;34.08;;;7.80;99.90;;;;;;5002663;28;20036;-72
2023/12/15 07:51:37;;;;;;;76.65;32.42;;;7.80;99.90;;;;;;5012003;28;20018;-72
2023/12/15 07:54:02;;;;;;;74.32;32.22;;;7.80;99.90;;;;;;5009847;28;20030;-72
2023/12/15 07:56:29;;;;;;;86.18;33.47;;;7.80;99.90;;;;;;5010439;28;20120;-72
2023/12/15 07:58:56;;;;;;;79.10;33.97;;;7.80;99.90;;;;;;5011672;28;20034;-72
2023/12/15 08:01:23;;;;;;;77.07;31.95;;;7.80;99.90;;;;;;5001763;28;20562;-73
2023/12/15 08:03:50;;;;;;;77.63;31.50;;;7.80;99.90;;;;;;5004428;28;20145;-72
2023/12/15 08:06:16;;;;;;;82.15;32.00;;;7.80;99.90;;;;;;5007655;28;20026;-72
2023/12/15 08:08:43;;;;;;;83.38;32.75;;;7.80;99.90;;;;;;4992196;28;20030;-73
2023/12/15 08:11:10;;;;;;;81.78;33.75;;;7.90;99.90;;;;;;5008624;28;20108;-72
2023/12/15 08:13:36;;;;;;;75.85;30.38;;;7.90;99.90;;;;;;5011803;28;20030;-72
2023/12/15 08:16:03;;;;;;;78.38;32.30;;;7.90;99.90;;;;;;5002849;28;20026;-72
2023/12/15 08:18:29;;;;;;;73.85;30.85;;;7.90;99.90;;;;;;5011718;28;20045;-72
2023/12/15 08:20:54;;;;;;;73.97;32.67;;;7.90;99.90;;;;;;5011055;28;20018;-72
2023/12/15 08:23:20;;;;;;;78.00;31.13;;;7.90;99.90;;;;;;5011505;28;20398;-72
2023/12/15 08:25:45;;;;;;;70.78;30.63;;;7.90;99.90;;;;;;5008099;28;20026;-73
2023/12/15 08:28:11;;;;;;;70.50;29.17;;;7.90;99.90;;;;;;4991994;28;20061;-72
2023/12/15 08:30:38;;;;;;;79.75;32.47;;;7.90;99.90;;;;;;5011622;28;20474;-73
2023/12/15 08:33:03;;;;;;;78.75;32.38;;;8.00;99.90;;;;;;4993444;28;20386;-73
2023/12/15 08:35:29;;;;;;;72.15;30.25;;;8.00;99.90;;;;;;5011511;28;20026;-72
2023/12/15 08:37:56;;;;;;;75.15;29.50;;;8.00;99.90;;;;;;5010647;28;20514;-72
2023/12/15 08:40:22;;;;;;;68.30;28.98;;;8.00;99.90;;;;;;5011194;28;20017;-72
2023/12/15 08:42:48;;;;;;;63.75;28.92;;;8.00;99.90;;;;;;5010987;28;20021;-72
2023/12/15 08:45:16;;;;;;;65.25;29.08;;;8.00;99.90;;;;;;4996597;28;20034;-73
2023/12/15 08:47:42;;;;;;;72.85;29.77;;;8.00;99.90;;;;;;5011302;28;20381;-72
2023/12/15 08:50:08;;;;;;;64.03;28.90;;;8.10;99.90;;;;;;5011520;28;20104;-72
2023/12/15 08:52:33;;;;;;;64.53;28.48;;;8.10;99.90;;;;;;5010988;28;20466;-72
2023/12/15 08:54:59;;;;;;;66.22;26.73;;;8.10;99.90;;;;;;5002056;28;20034;-72
2023/12/15 08:57:25;;;;;;;69.85;29.67;;;8.10;99.90;;;;;;4991800;28;20501;-72
2023/12/15 08:59:51;;;;;;;61.10;29.15;;;8.10;99.90;;;;;;4999752;28;20026;-72
2023/12/15 09:02:16;;;;;;;63.88;28.08;;;8.10;99.90;;;;;;5010737;28;20469;-73
2023/12/15 09:04:42;;;;;;;70.47;29.33;;;8.20;99.90;;;;;;5008248;28;20042;-72
2023/12/15 09:07:08;;;;;;;63.42;27.67;;;8.20;99.90;;;;;;5010536;28;20033;-73
2023/12/15 09:09:38;;;;;;;60.97;28.02;;;8.20;99.90;;;;;;4991969;28;20493;-72
2023/12/15 09:12:05;;;;;;;59.72;25.45;;;8.30;99.90;;;;;;4998961;28;20025;-72
2023/12/15 09:14:32;;;;;;;59.70;27.13;;;8.30;99.90;;;;;;5011230;28;20173;-73
2023/12/15 09:16:58;;;;;;;56.88;27.70;;;8.30;99.90;;;;;;4992922;28;20449;-72
2023/12/15 09:19:26;;;;;;;62.67;26.90;;;8.30;99.90;;;;;;4991781;28;20048;-73
2023/12/15 09:21:51;;;;;;;62.00;27.35;;;8.40;99.90;;;;;;5010742;28;20022;-73
2023/12/15 09:24:18;;;;;;;66.95;26.52;;;8.40;99.90;;;;;;4991412;28;20053;-72
2023/12/15 09:26:44;;;;;;;54.17;26.80;;;8.40;99.90;;;;;;5006137;28;20132;-72
2023/12/15 09:29:11;;;;;;;57.58;26.90;;;8.40;99.90;;;;;;5010631;28;20040;-73
2023/12/15 09:31:37;;;;;;;61.85;26.17;;;8.50;99.90;;;;;;5014266;28;20037;-73
2023/12/15 09:34:03;;;;;;;56.85;24.45;;;8.40;99.90;;;;;;5000107;28;20042;-72
2023/12/15 09:36:28;;;;;;;48.97;25.23;;;8.40;99.90;;;;;;5007523;28;20064;-72
2023/12/15 09:38:54;;;;;;;54.65;23.95;;;8.40;99.90;;;;;;5004995;28;20045;-72
2023/12/15 09:41:20;;;;;;;49.75;23.15;;;8.50;99.90;;;;;;5014474;28;20022;-72
2023/12/15 09:43:46;;;;;;;60.25;26.65;;;8.50;99.90;;;;;;5013547;28;20072;-72
2023/12/15 09:46:12;;;;;;;51.90;25.50;;;8.50;99.90;;;;;;5013656;28;20593;-73
2023/12/15 09:48:38;;;;;;;55.45;24.48;;;8.50;99.90;;;;;;5014189;28;20045;-73
2023/12/15 09:51:08;;;;;;;56.17;23.88;;;8.60;99.90;;;;;;5014092;28;20121;-72
2023/12/15 09:53:35;;;;;;;54.83;26.20;;;8.60;99.90;;;;;;5010777;28;20429;-72
2023/12/15 09:56:01;;;;;;;48.55;24.77;;;8.60;99.90;;;;;;5004319;28;20382;-73
2023/12/15 09:58:27;;;;;;;56.53;23.65;;;8.70;99.90;;;;;;5014044;28;20034;-72
2023/12/15 10:00:52;;;;;;;60.83;26.90;;;8.70;99.90;;;;;;5014249;28;20030;-72
2023/12/15 10:03:18;;;;;;;49.50;22.33;;;8.70;99.90;;;;;;5013803;28;20052;-72
2023/12/15 10:05:44;;;;;;;51.60;22.90;;;8.80;99.90;;;;;;4995449;28;20390;-73
2023/12/15 10:08:09;;;;;;;48.58;23.50;;;8.80;99.90;;;;;;4994184;28;20109;-72
2023/12/15 10:10:35;;;;;;;46.38;21.50;;;8.80;99.90;;;;;;5008792;28;20026;-73
2023/12/15 10:13:01;;;;;;;53.97;22.92;;;8.80;99.90;;;;;;5006798;28;20042;-73
2023/12/15 10:15:27;;;;;;;48.70;22.73;;;8.80;99.90;;;;;;5013873;28;20114;-73
2023/12/15 10:17:54;;;;;;;44.83;20.95;;;8.80;99.90;;;;;;5013831;28;20045;-73
2023/12/15 10:20:19;;;;;;;47.38;21.83;;;8.90;99.90;;;;;;4993647;28;20034;-72
2023/12/15 10:22:46;;;;;;;47.63;22.00;;;8.90;99.90;;;;;;5011514;28;20034;-73
2023/12/15 10:25:22;;;;;;;53.28;22.90;;;8.80;99.90;;;;;;5004301;28;20034;-73
2023/12/15 10:27:49;;;;;;;53.60;22.70;;;8.90;99.90;;;;;;5014044;28;20051;-73
2023/12/15 10:30:19;;;;;;;40.83;19.90;;;8.90;99.90;;;;;;5010069;28;20025;-73
2023/12/15 10:32:44;;;;;;;51.40;21.77;;;8.90;99.90;;;;;;5008047;28;20034;-73
2023/12/15 10:35:10;;;;;;;43.88;20.42;;;9.00;99.90;;;;;;4999739;28;20033;-72
2023/12/15 10:37:41;;;;;;;53.05;21.88;;;9.00;99.90;;;;;;5013148;28;20026;-73
2023/12/15 10:40:07;;;;;;;49.15;21.60;;;9.00;99.90;;;;;;4999705;28;20027;-72
2023/12/15 10:42:34;;;;;;;47.13;20.77;;;9.00;99.90;;;;;;5008694;28;20037;-72
2023/12/15 10:45:06;;;;;;;44.97;19.88;;;9.00;99.90;;;;;;5013108;28;20056;-73
2023/12/15 10:47:33;;;;;;;45.25;21.30;;;9.00;99.90;;;;;;5012689;28;20052;-73
2023/12/15 10:50:01;;;;;;;40.88;18.52;;;9.10;99.90;;;;;;5009745;28;20470;-73
2023/12/15 10:52:26;;;;;;;37.97;19.23;;;9.00;99.90;;;;;;4996966;28;20033;-72
2023/12/15 10:54:53;;;;;;;47.13;20.35;;;9.00;99.90;;;;;;5013087;28;20048;-73
2023/12/15 10:57:20;;;;;;;43.60;19.25;;;9.10;99.90;;;;;;5012415;28;20053;-72
2023/12/15 10:59:47;;;;;;;42.05;19.35;;;9.10;99.90;;;;;;4998014;28;20096;-73
2023/12/15 11:02:14;;;;;;;37.47;18.63;;;9.20;99.90;;;;;;5005417;28;20266;-73
2023/12/15 11:04:40;;;;;;;43.20;19.08;;;9.20;99.90;;;;;;5010669;28;20479;-73
2023/12/15 11:07:10;;;;;;;36.20;18.42;;;9.20;99.90;;;;;;5009819;28;20087;-72
2023/12/15 11:09:36;;;;;;;35.33;18.25;;;9.20;99.90;;;;;;4992160;28;20111;-72
2023/12/15 11:12:24;;;;;;;41.30;19.17;;;9.30;99.90;;;;;;5011851;28;20053;-73
2023/12/15 11:15:08;;;;;;;44.78;18.63;;;9.30;99.90;;;;;;5000032;28;20033;-72
2023/12/15 11:17:38;;;;;;;35.65;16.98;;;9.30;99.90;;;;;;5001283;28;20026;-73
2023/12/15 11:20:24;;;;;;;41.95;17.52;;;9.30;99.90;;;;;;5000054;28;20034;-72
2023/12/15 11:23:06;;;;;;;38.22;16.58;;;9.30;99.90;;;;;;4998187;28;20449;-73
2023/12/15 11:25:38;;;;;;;38.25;16.50;;;9.40;99.90;;;;;;5002001;28;20029;-73
2023/12/15 11:28:15;;;;;;;35.63;15.73;;;9.30;99.90;;;;;;5004100;28;20037;-72
2023/12/15 11:30:44;;;;;;;35.38;14.77;;;9.40;99.90;;;;;;5012304;28;20014;-73
2023/12/15 11:33:51;;;;;;;34.08;14.80;;;9.40;99.90;;;;;;5010570;28;20026;-73
2023/12/15 11:36:16;;;;;;;33.60;14.10;;;9.40;99.90;;;;;;5010453;28;20026;-72
2023/12/15 11:38:48;;;;;;;28.60;13.85;;;9.40;99.90;;;;;;5011668;28;20037;-72
2023/12/15 11:41:15;;;;;;;31.25;13.55;;;9.50;99.90;;;;;;5011410;28;20129;-72
2023/12/15 11:43:43;;;;;;;31.60;13.85;;;9.50;99.90;;;;;;5004483;28;20478;-72
2023/12/15 11:46:10;;;;;;;24.48;13.48;;;9.40;99.90;;;;;;5010799;28;20528;-72
2023/12/15 11:48:36;;;;;;;28.92;14.60;;;9.50;99.90;;;;;;5011040;28;20026;-72
2023/12/15 11:51:02;;;;;;;25.83;12.43;;;9.50;99.90;;;;;;5011247;28;20072;-72
2023/12/15 11:53:29;;;;;;;30.45;12.27;;;9.60;99.90;;;;;;5011421;28;20030;-73
2023/12/15 11:55:57;;;;;;;38.97;14.77;;;9.60;99.90;;;;;;5010310;28;20026;-73
2023/12/15 11:58:22;;;;;;;31.17;12.45;;;9.60;99.90;;;;;;5011337;28;20096;-72
2023/12/15 12:00:48;;;;;;;26.77;12.10;;;9.70;99.90;;;;;;5011711;28;20047;-74
2023/12/15 12:03:15;;;;;;;27.00;11.50;;;9.70;99.90;;;;;;5010777;28;20521;-72
2023/12/15 12:05:44;;;;;;;26.70;11.63;;;9.70;99.90;;;;;;4993966;28;20026;-71
2023/12/15 12:08:10;;;;;;;25.75;10.27;;;9.80;99.90;;;;;;5010678;28;20390;-72
2023/12/15 12:10:39;;;;;;;26.90;10.02;;;9.80;99.90;;;;;;4993787;28;20458;-73
2023/12/15 12:13:05;;;;;;;26.23;9.80;;;9.80;99.90;;;;;;4994107;28;20113;-73
2023/12/15 12:15:31;;;;;;;29.63;10.50;;;9.80;99.90;;;;;;5011035;28;20566;-73
2023/12/15 12:17:57;;;;;;;27.60;8.85;;;9.90;99.90;;;;;;5010908;28;20057;-73
2023/12/15 12:20:28;;;;;;;21.90;8.95;;;9.90;99.90;;;;;;5011335;28;20080;-73
2023/12/15 12:22:55;;;;;;;20.55;7.38;;;10.00;99.90;;;;;;5011121;28;20359;-72
2023/12/15 12:25:20;;;;;;;17.88;7.07;;;10.10;99.90;;;;;;5011082;28;20037;-73
2023/12/15 12:27:46;;;;;;;23.95;7.95;;;10.10;99.90;;;;;;5010629;28;20381;-72
2023/12/15 12:30:14;;;;;;;14.95;6.30;;;10.10;99.90;;;;;;5006897;28;20545;-73
2023/12/15 12:32:40;;;;;;;23.90;6.53;;;10.10;99.90;;;;;;5011053;28;20022;-73